Time;durP1;ratioP1;P1;durP2;ratioP2;P2;SDS_P1;SDS_P2;PMS_P1;PMS_P2;Temp;Humidity;BMP_temperature;BMP_pressure;BME280_temperature;BME280_humidity;BME280_pressure;Samples;Min_cycle;Max_cycle;Signal;HPM_P1;HPM_P2
2021/12/23 15:45:15;;;;;;;62.07;31.17;;;;;;;-142.75;100.00;77769.28;5082615;28;20734;-69
2021/12/23 15:47:41;;;;;;;62.42;30.48;;;;;;;-142.75;100.00;77769.28;5085532;28;20126;-67
2021/12/23 15:50:08;;;;;;;59.45;29.25;;;;;;;-142.75;100.00;77755.50;5075465;28;20574;-67
2021/12/23 15:52:33;;;;;;;56.03;29.30;;;;;;;-142.75;100.00;77741.72;5073877;28;20029;-66
2021/12/23 15:54:58;;;;;;;54.75;29.20;;;;;;;-142.75;100.00;77737.78;5066426;28;20402;-64
2021/12/23 15:57:24;;;;;;;59.67;31.17;;;;;;;-142.75;100.00;77735.81;5066713;28;20052;-68
2021/12/23 15:59:54;;;;;;;56.80;29.52;;;;;;;-142.75;100.00;77729.88;5085495;28;20031;-67
2021/12/23 16:02:27;;;;;;;59.87;29.33;;;;;;;-142.75;100.00;77723.97;5084903;28;20479;-68
2021/12/23 16:07:40;;;;;;;54.47;27.83;;;;;;;-142.75;100.00;77716.09;5085029;28;20130;-67
2021/12/23 16:10:13;;;;;;;57.93;29.10;;;;;;;-142.75;100.00;77708.22;5085361;28;20034;-68
2021/12/23 16:12:38;;;;;;;58.33;30.27;;;;;;;-142.75;100.00;77696.41;5086271;28;20027;-67
2021/12/23 16:15:08;;;;;;;61.70;28.65;;;;;;;-142.75;100.00;77686.56;5086025;28;20024;-68
2021/12/23 16:17:34;;;;;;;61.63;29.20;;;;;;;-142.75;100.00;77686.56;5086365;28;20025;-67
2021/12/23 16:20:00;;;;;;;58.67;28.65;;;;;;;-142.75;100.00;77684.59;5084940;28;20421;-67
2021/12/23 16:22:27;;;;;;;63.20;29.65;;;;;;;-142.75;100.00;77684.59;5082708;28;20401;-66
2021/12/23 16:24:55;;;;;;;63.43;29.60;;;;;;;-142.75;100.00;77672.78;5064106;28;20024;-67
2021/12/23 16:27:21;;;;;;;60.07;29.77;;;;;;;-142.75;100.00;77672.78;5064669;28;20104;-68
2021/12/23 16:30:09;;;;;;;60.23;28.63;;;;;;;-142.75;100.00;77657.03;5071573;28;20024;-67
2021/12/23 16:32:41;;;;;;;51.40;26.57;;;;;;;-142.75;100.00;77649.16;5084323;28;20091;-67
2021/12/23 16:35:08;;;;;;;56.23;27.83;;;;;;;-142.75;100.00;77655.06;5084789;28;20370;-67
2021/12/23 16:37:35;;;;;;;56.93;28.60;;;;;;;-142.75;100.00;77655.06;5077821;28;20064;-68
2021/12/23 16:42:29;;;;;;;57.77;29.27;;;;;;;-142.75;100.00;77660.97;5047066;22;20400;-69
2021/12/23 16:44:55;;;;;;;59.33;29.93;;;;;;;-142.75;100.00;77659.00;5025418;28;20030;-69
2021/12/23 16:47:20;;;;;;;61.97;30.80;;;;;;;-142.75;100.00;77651.13;5026025;28;20026;-69
2021/12/23 16:49:45;;;;;;;57.60;28.40;;;;;;;-142.75;100.00;77651.13;5023567;28;20025;-69
2021/12/23 16:52:11;;;;;;;58.53;31.50;;;;;;;-142.75;100.00;77653.09;5025603;28;20033;-68
2021/12/23 16:54:53;;;;;;;63.25;30.40;;;;;;;-142.75;100.00;77653.09;5023748;28;20028;-67
2021/12/23 16:57:36;;;;;;;65.00;29.87;;;;;;;-142.75;100.00;77645.22;5012762;28;20019;-67
2021/12/23 17:00:18;;;;;;;59.23;31.53;;;;;;;-142.75;100.00;77627.50;5011501;28;20112;-69
2021/12/23 17:02:47;;;;;;;62.17;29.37;;;;;;;-142.75;100.00;77627.50;5012411;28;20032;-68
2021/12/23 17:05:16;;;;;;;61.67;30.23;;;;;;;-142.75;100.00;77627.50;5011955;28;20380;-69
2021/12/23 17:07:44;;;;;;;60.53;30.70;;;;;;;-142.75;100.00;77627.50;5012161;28;20029;-67
2021/12/23 17:10:11;;;;;;;59.80;30.23;;;;;;;-142.75;100.00;58367.44;5009516;28;20434;-68
2021/12/23 17:12:38;;;;;;;63.93;31.97;;;;;;;-142.75;100.00;58249.25;5012140;28;20054;-68
2021/12/23 17:15:04;;;;;;;65.93;30.23;;;;;;;-142.75;100.00;58249.25;5011984;28;20040;-68
2021/12/23 17:17:33;;;;;;;68.68;31.75;;;;;;;-142.75;100.00;58249.25;5012324;28;20029;-69
2021/12/23 17:20:04;;;;;;;55.93;30.57;;;;;;;-142.75;100.00;58249.25;5009666;28;20022;-68
2021/12/23 17:22:32;;;;;;;63.50;31.33;;;;;;;-142.75;100.00;58249.25;5012286;28;20022;-69
2021/12/23 17:24:59;;;;;;;66.90;30.53;;;;;;;-142.75;100.00;58249.25;5011347;28;20022;-68
2021/12/23 17:27:27;;;;;;;67.03;31.87;;;;;;;-142.75;100.00;58249.25;5012119;28;20041;-69
2021/12/23 17:29:52;;;;;;;60.23;30.13;;;;;;;-142.75;100.00;58249.25;5009452;28;20029;-68
2021/12/23 17:32:18;;;;;;;57.58;28.00;;;;;;;-142.75;100.00;58249.25;5011986;28;20025;-68
2021/12/23 17:34:44;;;;;;;58.92;32.55;;;;;;;-142.75;100.00;58249.25;5010191;28;20022;-69
2021/12/23 17:37:11;;;;;;;75.03;39.67;;;;;;;-142.75;100.00;58249.25;5011656;28;20040;-68
2021/12/23 17:39:36;;;;;;;107.77;58.27;;;;;;;-142.75;100.00;58249.25;5011167;28;20056;-68
2021/12/23 17:42:02;;;;;;;61.33;31.73;;;;;;;-142.75;100.00;58249.25;5010804;28;20405;-67
2021/12/23 17:44:28;;;;;;;;;;;;;;;-142.75;100.00;58249.25;5012256;28;20111;-68
2021/12/23 17:46:53;;;;;;;65.57;27.50;;;;;;;-142.75;100.00;58249.25;5011160;28;19948;-68
2021/12/23 17:49:19;;;;;;;63.03;28.60;;;;;;;-142.75;100.00;58249.25;5010370;28;20403;-68
2021/12/23 17:51:44;;;;;;;65.57;30.10;;;;;;;-142.75;100.00;58249.25;5010467;28;20112;-68
2021/12/23 17:54:10;;;;;;;69.03;31.05;;;;;;;-142.75;100.00;58249.25;5011150;28;20519;-68
2021/12/23 17:56:36;;;;;;;65.13;30.35;;;;;;;-142.75;100.00;58249.25;5011415;28;20030;-70
2021/12/23 17:59:03;;;;;;;;;;;;;;;-142.75;100.00;58249.25;5011619;28;20442;-68
2021/12/23 18:01:28;;;;;;;52.70;24.55;;;;;;;-142.75;100.00;58249.25;5009398;28;19921;-69
2021/12/23 18:03:53;;;;;;;63.10;32.03;;;;;;;-142.75;100.00;58249.25;5010732;28;20021;-68
2021/12/23 18:06:19;;;;;;;62.80;29.67;;;;;;;-142.75;100.00;58249.25;5010999;28;20307;-68
2021/12/23 18:08:44;;;;;;;71.07;30.63;;;;;;;-142.75;100.00;58249.25;5008748;28;20021;-70
2021/12/23 18:11:09;;;;;;;69.93;32.00;;;;;;;-142.75;100.00;58249.25;5010211;28;20443;-69
2021/12/23 18:13:35;;;;;;;70.07;31.27;;;;;;;-142.75;100.00;58249.25;5011059;28;20037;-69
2021/12/23 18:16:00;;;;;;;66.65;32.00;;;;;;;-142.75;100.00;58249.25;5009468;28;20487;-69
2021/12/23 18:18:25;;;;;;;68.80;30.35;;;;;;;-142.75;100.00;58249.25;5011171;28;20034;-69
2021/12/23 18:20:51;;;;;;;65.47;30.40;;;;;;;-142.75;100.00;58249.25;5009856;28;20026;-69
2021/12/23 18:23:17;;;;;;;75.32;34.53;;;;;;;-142.75;100.00;58249.25;5010970;28;20014;-69
2021/12/23 18:25:43;;;;;;;80.50;33.53;;;;;;;-142.75;100.00;58249.25;5010718;28;20126;-69
2021/12/23 18:28:11;;;;;;;85.87;37.57;;;;;;;-142.75;100.00;58249.25;5010650;28;20034;-68
2021/12/23 18:30:37;;;;;;;88.87;37.40;;;;;;;-142.75;100.00;58249.25;5009725;28;20026;-68
2021/12/23 18:33:04;;;;;;;90.53;38.67;;;;;;;-142.75;100.00;58249.25;5010463;28;20480;-68
2021/12/23 18:35:33;;;;;;;94.73;40.13;;;;;;;-142.75;100.00;58249.25;5010736;28;20132;-68
2021/12/23 18:38:02;;;;;;;89.67;37.87;;;;;;;-142.75;100.00;58249.25;5010388;28;20045;-68
2021/12/23 18:40:33;;;;;;;86.70;38.33;;;;;;;-142.75;100.00;58249.25;5010134;28;20484;-67
2021/12/23 18:43:00;;;;;;;93.07;39.37;;;;;;;-142.75;100.00;58249.25;5010394;28;20029;-68
2021/12/23 18:45:29;;;;;;;94.47;38.47;;;;;;;-142.75;100.00;58249.25;5009510;28;20025;-68
2021/12/23 18:47:55;;;;;;;95.57;38.50;;;;;;;-142.75;100.00;58249.25;5010124;28;20036;-68
2021/12/23 18:50:24;;;;;;;96.70;40.75;;;;;;;-142.75;100.00;58249.25;5010040;28;20053;-69
2021/12/23 18:52:51;;;;;;;90.23;36.67;;;;;;;-142.75;100.00;58249.25;5010657;28;20022;-71
2021/12/23 18:55:16;;;;;;;86.57;36.70;;;;;;;-142.75;100.00;58249.25;5010231;28;20831;-70
2021/12/23 18:57:41;;;;;;;91.45;38.03;;;;;;;-142.75;100.00;58249.25;5010528;28;20029;-69
2021/12/23 19:00:09;;;;;;;96.10;38.58;;;;;;;-142.75;100.00;58249.25;5009805;28;20403;-68
2021/12/23 19:02:46;;;;;;;95.23;40.73;;;;;;;-142.75;100.00;58249.25;5011422;28;20116;-69
2021/12/23 19:05:28;;;;;;;100.67;40.17;;;;;;;-142.75;100.00;58249.25;5010464;28;20387;-69
2021/12/23 19:07:55;;;;;;;101.00;40.20;;;;;;;-142.75;100.00;58249.25;5009596;28;20034;-68
2021/12/23 19:10:21;;;;;;;106.40;41.37;;;;;;;-142.75;100.00;58249.25;5007113;28;20026;-69
2021/12/23 19:12:47;;;;;;;102.40;43.15;;;;;;;-142.75;100.00;58249.25;5009078;28;20073;-69
2021/12/23 19:15:12;;;;;;;99.18;38.90;;;;;;;-142.75;100.00;58249.25;5008341;28;20022;-69
2021/12/23 19:17:38;;;;;;;99.32;38.97;;;;;;;-142.75;100.00;58249.25;5009285;28;20107;-69
2021/12/23 19:20:05;;;;;;;104.93;39.13;;;;;;;-142.75;100.00;58249.25;5008226;28;20069;-69
2021/12/23 19:22:30;;;;;;;103.30;39.33;;;;;;;-142.75;100.00;58249.25;5008969;28;20038;-69
2021/12/23 19:24:56;;;;;;;102.03;40.47;;;;;;;-142.75;100.00;58249.25;5008136;28;20060;-69
2021/12/23 19:27:21;;;;;;;95.68;39.00;;;;;;;-142.75;100.00;58249.25;5008705;28;20018;-70
2021/12/23 19:29:46;;;;;;;94.30;36.35;;;;;;;-142.75;100.00;58249.25;5006235;28;20107;-69
2021/12/23 19:32:16;;;;;;;83.50;37.55;;;;;;;-142.75;100.00;58249.25;5007945;28;20080;-70
2021/12/23 19:34:46;;;;;;;89.37;36.57;;;;;;;-142.75;100.00;58249.25;5008428;28;20484;-70
2021/12/23 19:37:12;;;;;;;83.63;35.23;;;;;;;-142.75;100.00;58249.25;5007616;28;20025;-69
2021/12/23 19:39:37;;;;;;;75.13;33.15;;;;;;;-142.75;100.00;58249.25;5006445;28;20024;-69
2021/12/23 19:42:04;;;;;;;82.03;34.72;;;;;;;-142.75;100.00;58249.25;5005871;28;20029;-70
2021/12/23 19:44:29;;;;;;;70.27;31.37;;;;;;;-142.75;100.00;58249.25;5006785;28;20068;-68
2021/12/23 19:46:54;;;;;;;63.38;30.50;;;;;;;-142.75;100.00;58249.25;5007646;28;20026;-68
2021/12/23 19:49:20;;;;;;;64.00;30.60;;;;;;;-142.75;100.00;58249.25;5006469;28;20546;-69
2021/12/23 19:51:52;;;;;;;61.05;31.17;;;;;;;-142.75;100.00;58249.25;5007208;28;20030;-69
2021/12/23 19:54:19;;;;;;;63.03;30.63;;;;;;;-142.75;100.00;58249.25;5008754;28;20396;-69
2021/12/23 19:56:44;;;;;;;62.40;29.80;;;;;;;-142.75;100.00;58249.25;5005257;28;20044;-70
2021/12/23 19:59:10;;;;;;;57.33;27.55;;;;;;;-142.75;100.00;58249.25;5008366;28;20496;-70
2021/12/23 20:01:35;;;;;;;56.83;28.33;;;;;;;-142.75;100.00;58249.25;5004647;28;20121;-68
2021/12/23 20:04:02;;;;;;;55.85;27.05;;;;;;;-142.75;100.00;58249.25;5007105;28;20018;-68
2021/12/23 20:06:27;;;;;;;53.63;27.37;;;;;;;-142.75;100.00;58249.25;5009076;28;20092;-68
2021/12/23 20:08:53;;;;;;;56.47;28.73;;;;;;;-142.75;100.00;58249.25;5008381;28;20026;-68
2021/12/23 20:11:18;;;;;;;59.22;28.52;;;;;;;-142.75;100.00;58249.25;5007385;28;20109;-68
2021/12/23 20:13:44;;;;;;;56.40;27.60;;;;;;;-142.75;100.00;58249.25;5008178;28;20472;-68
2021/12/23 20:16:13;;;;;;;56.80;26.88;;;;;;;-142.75;100.00;58249.25;5008640;28;20053;-69
2021/12/23 20:18:41;;;;;;;54.77;28.23;;;;;;;-142.75;100.00;58249.25;5008407;28;20022;-69
2021/12/23 20:21:06;;;;;;;55.57;28.53;;;;;;;-142.75;100.00;58249.25;5006090;28;20026;-69
2021/12/23 20:23:32;;;;;;;54.75;28.08;;;;;;;-142.75;100.00;58249.25;5008616;28;20115;-68
2021/12/23 20:25:57;;;;;;;53.83;28.60;;;;;;;-142.75;100.00;58249.25;5006398;28;20026;-68
2021/12/23 20:28:22;;;;;;;59.43;28.83;;;;;;;-142.75;100.00;58249.25;5008550;28;20034;-69
2021/12/23 20:30:49;;;;;;;57.73;28.67;;;;;;;-142.75;100.00;58249.25;5009032;28;20335;-69
2021/12/23 20:33:14;;;;;;;60.00;29.23;;;;;;;-142.75;100.00;58249.25;5011824;28;20273;-69
2021/12/23 20:35:42;;;;;;;60.28;31.10;;;;;;;-142.75;100.00;58249.25;5011837;28;20033;-69
2021/12/23 20:38:07;;;;;;;62.57;31.57;;;;;;;-142.75;100.00;58249.25;5011804;28;20033;-69
2021/12/23 20:40:32;;;;;;;60.30;29.77;;;;;;;-142.75;100.00;58249.25;5009864;28;20030;-68
2021/12/23 20:42:58;;;;;;;64.00;31.90;;;;;;;-142.75;100.00;58249.25;5011489;28;20040;-69
2021/12/23 20:45:25;;;;;;;66.35;32.05;;;;;;;-142.75;100.00;58249.25;5011945;28;20157;-69
2021/12/23 20:47:51;;;;;;;62.77;32.13;;;;;;;-142.75;100.00;58249.25;5011471;28;20183;-69
2021/12/23 20:50:21;;;;;;;65.53;33.10;;;;;;;-142.75;100.00;58249.25;5010935;28;20109;-69
2021/12/23 20:52:47;;;;;;;62.90;32.10;;;;;;;-142.75;100.00;58249.25;5001594;28;20037;-69
2021/12/23 20:55:24;;;;;;;63.37;33.63;;;;;;;-142.75;100.00;58249.25;5005986;28;20034;-68
2021/12/23 20:57:51;;;;;;;70.97;33.37;;;;;;;-142.75;100.00;58249.25;5007494;28;20029;-68
2021/12/23 21:00:17;;;;;;;72.13;34.30;;;;;;;-142.75;100.00;58249.25;5007544;28;20036;-69
2021/12/23 21:02:42;;;;;;;69.47;33.90;;;;;;;-142.75;100.00;58249.25;5009324;28;20412;-69
2021/12/23 21:05:08;;;;;;;65.47;34.50;;;;;;;-142.75;100.00;58249.25;5009860;28;20502;-69
2021/12/23 21:07:34;;;;;;;68.10;34.13;;;;;;;-142.75;100.00;58249.25;5011310;28;20034;-69
2021/12/23 21:09:59;;;;;;;74.53;34.65;;;;;;;-142.75;100.00;58249.25;5010049;28;20666;-69
2021/12/23 21:12:26;;;;;;;73.10;34.30;;;;;;;-142.75;100.00;58249.25;5011109;28;20510;-68
2021/12/23 21:14:52;;;;;;;61.13;31.10;;;;;;;-142.75;100.00;58249.25;5010991;28;20041;-68
2021/12/23 21:17:19;;;;;;;58.07;31.93;;;;;;;-142.75;100.00;58249.25;5009813;28;20044;-68
2021/12/23 21:19:45;;;;;;;67.17;34.47;;;;;;;-142.75;100.00;58249.25;5010197;28;20034;-68
2021/12/23 21:22:12;;;;;;;64.10;33.38;;;;;;;-142.75;100.00;58249.25;5010780;28;20037;-69
2021/12/23 21:24:38;;;;;;;60.27;32.57;;;;;;;-142.75;100.00;58249.25;5010837;28;20480;-68
2021/12/23 21:27:07;;;;;;;58.65;30.92;;;;;;;-142.75;100.00;58249.25;5007369;28;20029;-68
2021/12/23 21:29:33;;;;;;;59.27;29.60;;;;;;;-142.75;100.00;58249.25;5010989;28;20390;-68
2021/12/23 21:32:01;;;;;;;57.25;30.30;;;;;;;-142.75;100.00;58249.25;5009057;28;20093;-68
2021/12/23 21:34:28;;;;;;;55.50;29.50;;;;;;;-142.75;100.00;58249.25;5010737;28;20486;-68
2021/12/23 21:36:54;;;;;;;55.90;30.00;;;;;;;-142.75;100.00;58249.25;5010145;28;20026;-69
2021/12/23 21:39:19;;;;;;;54.95;28.67;;;;;;;-142.75;100.00;58249.25;5011664;28;20073;-69
2021/12/23 21:41:47;;;;;;;54.17;30.02;;;;;;;-142.75;100.00;58249.25;5010390;28;20033;-69
2021/12/23 21:44:14;;;;;;;52.00;29.30;;;;;;;-142.75;100.00;58249.25;5011266;28;20022;-68
2021/12/23 21:46:39;;;;;;;52.03;28.67;;;;;;;-142.75;100.00;58249.25;5009989;28;20029;-68
2021/12/23 21:49:05;;;;;;;52.10;28.35;;;;;;;-142.75;100.00;58249.25;5011137;28;20030;-68
2021/12/23 21:51:33;;;;;;;47.25;27.23;;;;;;;-142.75;100.00;58249.25;5010603;28;20025;-69
2021/12/23 21:54:02;;;;;;;48.13;27.87;;;;;;;-142.75;100.00;58249.25;5008707;28;20109;-68
2021/12/23 21:56:28;;;;;;;48.77;27.87;;;;;;;-142.75;100.00;58249.25;5010540;28;20045;-69
2021/12/23 21:58:53;;;;;;;60.20;29.95;;;;;;;-142.75;100.00;58249.25;5010646;28;20161;-67
2021/12/23 22:01:19;;;;;;;58.78;30.40;;;;;;;-142.75;100.00;58249.25;5010365;28;20113;-68
2021/12/23 22:03:45;;;;;;;61.85;32.08;;;;;;;-142.75;100.00;58249.25;5009479;28;20411;-67
2021/12/23 22:06:10;;;;;;;66.22;34.63;;;;;;;-142.75;100.00;58249.25;5010889;28;20038;-67
2021/12/23 22:08:36;;;;;;;68.57;33.95;;;;;;;-142.75;100.00;58249.25;5010871;28;20061;-67
2021/12/23 22:11:03;;;;;;;77.68;36.75;;;;;;;-142.75;100.00;58249.25;5008698;28;20083;-67
2021/12/23 22:13:28;;;;;;;75.13;35.87;;;;;;;-142.75;100.00;58249.25;5010894;28;20017;-67
2021/12/23 22:15:54;;;;;;;82.47;37.35;;;;;;;-142.75;100.00;58249.25;5010228;28;20033;-67
2021/12/23 22:18:19;;;;;;;80.00;37.22;;;;;;;-142.75;100.00;58249.25;5011038;28;20022;-67
2021/12/23 22:20:45;;;;;;;70.65;35.83;;;;;;;-142.75;100.00;58249.25;5009812;28;20079;-67
2021/12/23 22:23:12;;;;;;;77.72;34.80;;;;;;;-142.75;100.00;58249.25;5009575;28;20149;-67
2021/12/23 22:25:37;;;;;;;77.13;35.30;;;;;;;-142.75;100.00;58249.25;5009838;28;20037;-66
2021/12/23 22:28:04;;;;;;;84.60;37.87;;;;;;;-142.75;100.00;58249.25;5010401;28;20018;-67
2021/12/23 22:30:29;;;;;;;;;;;;;;;-142.75;100.00;58249.25;5009024;28;20311;-67
2021/12/23 22:32:55;;;;;;;69.13;34.00;;;;;;;-142.75;100.00;58249.25;5010010;28;20425;-67
2021/12/23 22:35:21;;;;;;;82.50;36.38;;;;;;;-142.75;100.00;58249.25;5009326;28;20021;-67
2021/12/23 22:37:46;;;;;;;84.30;36.50;;;;;;;-142.75;100.00;58249.25;5009164;28;20543;-67
2021/12/23 22:40:15;;;;;;;77.38;36.45;;;;;;;-142.75;100.00;58249.25;5007568;28;20030;-67
2021/12/23 22:42:41;;;;;;;83.63;36.83;;;;;;;-142.75;100.00;58249.25;5045467;22;20047;-67
2021/12/23 22:45:09;;;;;;;82.40;34.80;;;;;;;-142.75;100.00;58249.25;5019414;28;20021;-67
2021/12/23 22:47:34;;;;;;;78.10;35.30;;;;;;;-142.75;100.00;58249.25;5018870;28;20026;-69
2021/12/23 22:50:00;;;;;;;74.90;33.65;;;;;;;-142.75;100.00;58249.25;5007964;28;20121;-67
2021/12/23 22:52:25;;;;;;;70.70;31.90;;;;;;;-142.75;100.00;58249.25;5010576;28;20022;-67
2021/12/23 22:54:51;;;;;;;70.43;32.95;;;;;;;-142.75;100.00;58249.25;5009817;28;20068;-68
2021/12/23 22:57:19;;;;;;;60.92;29.52;;;;;;;-142.75;100.00;58249.25;5009149;28;20021;-66
2021/12/23 22:59:45;;;;;;;66.40;30.40;;;;;;;-142.75;100.00;58249.25;5009327;28;20041;-68
2021/12/23 23:02:10;;;;;;;64.70;30.50;;;;;;;-142.75;100.00;58249.25;5010007;28;20026;-67
